CLYO2: Little River nr Cloudy 5ENE

Data processed at Wed Feb 21 2018 23:08


All information presented herein is the property of the government of the United States of America and may be revised or deleted at any time without prior notice.
Dissemination of this information without the expressed written consent of the Public Affairs Office, Tulsa District U.S. Army Corps of Engineers is strictly prohibited.
These data are gathered electronically and, as presented, have not undergone any form of quality control. These data are not guaranteed to be valid or correct.
Go to home page.
Go to station list.

Downstream station:


Previous Day
Next Day
Current Day
    
SHEF ID:       CLYO2     Little River nr Cloudy 5ENE
STATION TYPE:  

               PRECIP     STAGE  RIV-FLOW   VOLTAGE  BAT-LOAD
                   in        ft       cfs      volt      volt
              Ccp-Rev   Ccp-Rev   Ccp-Rev   Ccp-Rev   Ccp-Rev
(US/Central)
02/21 00:00      0.16     18.39     19398     12.54     12.54
02/21 01:00      0.21     20.08     22190     12.54     12.48
02/21 02:00      0.19     21.03     24194     12.54     12.42
02/21 03:00      0.25     21.71     25628     12.48     12.42
02/21 04:00      0.13     22.13     26514     12.48     12.42
02/21 05:00      0.12     22.68     27674     12.42     12.42
02/21 06:00      0.13     23.25     28877     12.42     12.36
02/21 07:00      0.08     23.62     29657     12.42     12.36
02/21 08:00      0.08     23.75     29931     12.42     12.36
02/21 09:00      0.10     23.94     30332     12.54     12.36
02/21 10:00      0.03     23.19     28750     12.89     12.48
02/21 11:00      0.01     23.29     28961     13.53     12.77
02/21 12:00      0.00     22.88     28096     13.77     13.53
02/21 13:00      0.00     22.04     26325     13.83     13.65
02/21 14:00      0.00     21.57     25333     13.48     13.59
02/21 15:00      0.04     20.81     23730     13.30     13.36
02/21 16:00      0.13     19.77     21607     13.12     13.18
02/21 17:00      0.13     18.78     20022     13.00     13.07
02/21 18:00      0.03     17.45     17893     12.83     12.89
02/21 19:00      0.02     16.08     15699     12.77     12.71
02/21 20:00      0.10     15.13     14178     12.71     12.65
02/21 21:00      0.02     14.40     13009     12.65     12.65
02/21 22:00      0.00     14.09     12512     12.65     12.60
02/21 23:00      ----      ----      ----      ----      ----